Time;durP1;ratioP1;P1;durP2;ratioP2;P2;SDS_P1;SDS_P2;PMS_P1;PMS_P2;Temp;Humidity;BMP_temperature;BMP_pressure;BME280_temperature;BME280_humidity;BME280_pressure;Samples;Min_cycle;Max_cycle;Signal;HPM_P1;HPM_P2
2022/08/05 00:01:38;;;;;;;6.60;3.30;;;;;;;23.29;59.20;96003.75;5091273;28;20044;-76
2022/08/05 00:04:04;;;;;;;6.07;3.58;;;;;;;23.18;59.80;96001.84;5090605;28;20043;-76
2022/08/05 00:06:32;;;;;;;4.32;3.28;;;;;;;23.14;59.58;96003.88;5091001;28;20055;-76
2022/08/05 00:09:00;;;;;;;6.78;3.45;;;;;;;23.06;60.51;95999.56;5090569;28;20090;-76
2022/08/05 00:11:29;;;;;;;5.93;3.40;;;;;;;22.98;60.09;95998.03;5090418;28;20052;-76
2022/08/05 00:13:56;;;;;;;5.95;3.30;;;;;;;22.95;60.00;95998.84;5090605;28;20040;-76
2022/08/05 00:16:23;;;;;;;8.38;3.88;;;;;;;22.94;61.20;96002.81;5088877;28;20081;-75
2022/08/05 00:18:49;;;;;;;5.75;3.35;;;;;;;22.86;60.31;96006.81;5084135;28;20048;-75
2022/08/05 00:21:17;;;;;;;4.78;3.47;;;;;;;22.85;61.16;96002.44;5090192;28;20131;-76
2022/08/05 00:23:47;;;;;;;6.72;4.28;;;;;;;22.85;61.23;96006.00;5077973;28;20083;-76
2022/08/05 00:26:15;;;;;;;5.35;3.15;;;;;;;22.76;60.59;96008.47;5090222;28;20044;-76
2022/08/05 00:28:41;;;;;;;6.07;3.30;;;;;;;22.71;61.00;96000.56;5090429;28;20048;-75
2022/08/05 00:31:08;;;;;;;7.40;4.30;;;;;;;22.70;61.28;95998.97;5090302;28;20499;-75
2022/08/05 00:33:35;;;;;;;3.80;3.28;;;;;;;22.64;61.30;96001.38;5090232;28;20520;-76
2022/08/05 00:36:01;;;;;;;6.80;3.50;;;;;;;22.62;62.93;96003.78;5090414;28;20052;-76
2022/08/05 00:38:28;;;;;;;4.30;3.60;;;;;;;22.57;62.33;96001.44;5090237;28;20052;-77
2022/08/05 00:40:58;;;;;;;7.22;3.90;;;;;;;22.44;62.06;95993.97;5090388;28;20060;-75
2022/08/05 00:43:25;;;;;;;4.97;3.60;;;;;;;22.45;62.95;95996.34;5089727;28;20040;-75
2022/08/05 00:45:51;;;;;;;4.68;3.38;;;;;;;22.48;63.14;95987.19;5090176;28;20127;-79
2022/08/05 00:48:22;;;;;;;4.70;3.70;;;;;;;22.48;63.52;95989.97;5089669;28;20047;-75
2022/08/05 00:50:51;;;;;;;6.85;4.05;;;;;;;22.49;63.41;95993.53;5090087;28;20048;-76
2022/08/05 00:53:20;;;;;;;4.85;3.58;;;;;;;22.51;63.78;95989.19;5089695;28;20040;-76
2022/08/05 00:55:47;;;;;;;5.97;3.65;;;;;;;22.49;64.28;95988.00;5089880;28;20044;-75
2022/08/05 00:58:16;;;;;;;5.10;3.30;;;;;;;22.48;64.27;95991.97;5089234;28;20052;-76
2022/08/05 01:00:43;;;;;;;5.65;3.60;;;;;;;22.46;63.96;95989.59;5090011;28;20533;-75
2022/08/05 01:03:11;;;;;;;5.50;3.67;;;;;;;22.43;64.09;95992.38;5089600;28;20074;-75
2022/08/05 01:05:38;;;;;;;5.47;3.85;;;;;;;21.83;65.27;95994.16;5089965;28;20048;-75
2022/08/05 01:08:05;;;;;;;8.30;3.95;;;;;;;21.39;67.32;95989.09;5089216;28;20627;-75
2022/08/05 01:10:37;;;;;;;7.45;4.57;;;;;;;21.41;67.27;95993.06;5089879;28;20092;-75
2022/08/05 01:13:21;;;;;;;8.35;4.07;;;;;;;21.54;66.77;95990.66;5089700;28;20043;-75
2022/08/05 01:15:54;;;;;;;8.55;4.10;;;;;;;21.61;66.76;95988.69;5090130;28;20052;-75
2022/08/05 01:18:25;;;;;;;7.22;4.10;;;;;;;21.59;66.80;95988.28;5089428;28;20051;-76
2022/08/05 01:21:03;;;;;;;9.70;4.03;;;;;;;21.67;66.70;95983.53;5089974;28;20052;-77
2022/08/05 01:23:43;;;;;;;7.85;4.57;;;;;;;21.53;67.10;95987.09;5089596;28;20050;-75
2022/08/05 01:26:21;;;;;;;4.80;3.92;;;;;;;21.60;67.23;95987.06;5069409;28;20048;-75
2022/08/05 01:28:53;;;;;;;7.90;4.40;;;;;;;21.66;66.65;95990.22;5070833;28;20131;-77
2022/08/05 01:31:26;;;;;;;9.00;4.72;;;;;;;21.78;66.71;95984.28;5073341;28;20050;-75
2022/08/05 01:33:59;;;;;;;6.10;4.43;;;;;;;21.84;67.07;95988.22;5073512;28;20075;-77
2022/08/05 01:36:32;;;;;;;5.65;4.05;;;;;;;21.91;67.33;95987.41;5072861;28;20036;-75
2022/08/05 01:38:59;;;;;;;5.78;3.92;;;;;;;21.88;65.91;95994.56;5076763;28;20659;-73
2022/08/05 01:41:29;;;;;;;6.75;4.43;;;;;;;21.89;66.56;95989.78;5077812;28;20499;-75
2022/08/05 01:43:58;;;;;;;7.97;4.38;;;;;;;21.93;66.12;95985.03;5076945;28;20048;-75
2022/08/05 01:46:25;;;;;;;6.13;4.18;;;;;;;21.87;65.76;95986.63;5074212;28;20526;-76
2022/08/05 01:48:54;;;;;;;8.25;3.70;;;;;;;21.81;66.13;95994.56;5075087;28;20059;-75
2022/08/05 01:51:23;;;;;;;5.38;4.05;;;;;;;21.86;66.62;95990.59;5074278;28;20040;-76
2022/08/05 01:53:52;;;;;;;5.68;4.68;;;;;;;21.82;66.85;95989.78;5083279;28;20048;-75
2022/08/05 01:56:20;;;;;;;6.75;4.30;;;;;;;21.72;66.99;95982.31;5094150;28;20380;-76
2022/08/05 01:58:50;;;;;;;6.38;4.75;;;;;;;21.68;66.50;95985.09;5093994;28;20048;-76
2022/08/05 02:01:20;;;;;;;7.25;4.53;;;;;;;21.68;66.41;95984.31;5094075;28;20048;-75
2022/08/05 02:03:48;;;;;;;8.43;4.75;;;;;;;21.51;67.05;95977.63;5093990;28;20059;-76
2022/08/05 02:06:16;;;;;;;6.25;4.80;;;;;;;21.38;67.71;95981.97;5093353;28;20044;-76
2022/08/05 02:08:43;;;;;;;8.32;4.85;;;;;;;21.27;68.34;95984.72;5094059;28;20055;-76
2022/08/05 02:11:11;;;;;;;6.72;4.70;;;;;;;21.34;67.68;95982.75;5093312;28;20044;-76
2022/08/05 02:13:44;;;;;;;6.55;4.32;;;;;;;21.43;67.64;95985.13;5093887;28;20040;-76
2022/08/05 02:16:19;;;;;;;7.25;4.63;;;;;;;21.36;67.65;95990.69;5093020;28;20048;-76
2022/08/05 02:18:50;;;;;;;5.78;4.53;;;;;;;21.34;67.76;95982.75;5093490;28;20043;-75
2022/08/05 02:21:19;;;;;;;9.15;5.18;;;;;;;21.29;67.74;95985.09;5092867;28;20044;-76
2022/08/05 02:23:52;;;;;;;9.02;4.75;;;;;;;21.28;67.94;95989.06;5093065;28;20047;-76
2022/08/05 02:26:23;;;;;;;9.68;5.22;;;;;;;21.21;68.05;95980.78;5092827;28;20534;-76
2022/08/05 02:28:50;;;;;;;7.95;5.43;;;;;;;21.10;68.33;95981.56;5093128;28;20070;-76
2022/08/05 02:31:21;;;;;;;7.35;4.63;;;;;;;21.13;68.33;95987.47;5092552;28;20052;-77
2022/08/05 02:33:52;;;;;;;5.68;4.55;;;;;;;21.19;68.43;95983.13;5092911;28;20048;-76
2022/08/05 02:36:23;;;;;;;12.45;5.90;;;;;;;21.05;68.69;95986.72;5091957;28;20052;-76
2022/08/05 02:38:50;;;;;;;6.53;5.38;;;;;;;21.17;68.78;95988.28;5092768;28;20419;-76
2022/08/05 02:41:17;;;;;;;6.65;4.93;;;;;;;21.15;68.25;95990.66;5091367;28;20048;-76
2022/08/05 02:43:46;;;;;;;6.90;5.57;;;;;;;21.24;67.96;95996.56;5092786;28;20052;-76
2022/08/05 02:46:15;;;;;;;8.98;5.25;;;;;;;21.21;67.61;95992.63;5092062;28;20525;-76
2022/08/05 02:48:43;;;;;;;6.68;5.00;;;;;;;21.28;67.80;95984.31;5092458;28;20431;-76
2022/08/05 02:51:13;;;;;;;6.97;4.75;;;;;;;21.35;68.30;95989.09;5092218;28;20040;-76
2022/08/05 02:53:42;;;;;;;6.57;4.95;;;;;;;21.40;68.80;95985.91;5092256;28;20040;-76
2022/08/05 02:56:11;;;;;;;8.85;4.57;;;;;;;21.34;69.10;95984.72;5071860;28;20048;-76
2022/08/05 02:58:39;;;;;;;6.43;5.13;;;;;;;21.30;69.37;95986.75;5071931;28;20045;-75
2022/08/05 03:01:09;;;;;;;6.43;4.60;;;;;;;21.19;69.50;95977.59;5077228;28;20052;-76
2022/08/05 03:03:40;;;;;;;7.95;5.22;;;;;;;21.15;69.95;95974.84;5072371;28;20507;-77
2022/08/05 03:06:07;;;;;;;6.80;4.80;;;;;;;21.10;70.01;95972.47;5071915;28;20045;-76
2022/08/05 03:08:37;;;;;;;6.25;4.80;;;;;;;21.10;70.43;95973.25;5072424;28;20526;-75
2022/08/05 03:11:04;;;;;;;6.05;4.88;;;;;;;21.08;70.58;95959.00;5072083;28;20657;-76
2022/08/05 03:13:30;;;;;;;7.85;4.63;;;;;;;21.10;71.01;95966.94;5072491;28;20075;-76
2022/08/05 03:15:57;;;;;;;7.60;5.57;;;;;;;21.02;70.50;95962.56;5072488;28;20052;-76
2022/08/05 03:18:24;;;;;;;8.35;5.38;;;;;;;20.90;69.75;95961.00;5071852;28;20042;-76
2022/08/05 03:20:50;;;;;;;9.02;5.78;;;;;;;20.82;69.98;95962.16;5072358;28;20551;-76
2022/08/05 03:23:17;;;;;;;10.40;5.45;;;;;;;20.75;70.44;95965.72;5076304;28;20377;-77
2022/08/05 03:25:45;;;;;;;9.60;6.00;;;;;;;20.76;70.43;95963.75;5092588;28;20048;-77
2022/08/05 03:28:12;;;;;;;11.05;5.72;;;;;;;20.54;71.56;95962.91;5091885;28;20047;-77
2022/08/05 03:30:39;;;;;;;10.20;6.10;;;;;;;20.46;71.96;95975.91;5092273;28;20059;-78
2022/08/05 03:33:06;;;;;;;10.38;5.10;;;;;;;20.58;71.76;95964.50;5091578;28;20507;-77
2022/08/05 03:35:33;;;;;;;8.98;5.93;;;;;;;20.57;71.29;95968.47;5091853;28;20051;-75
2022/08/05 03:38:00;;;;;;;9.48;5.47;;;;;;;20.57;71.28;95968.47;5091443;28;20052;-76
2022/08/05 03:40:27;;;;;;;6.15;5.20;;;;;;;20.65;71.08;95968.47;5091189;28;20051;-76
2022/08/05 03:42:54;;;;;;;6.97;5.43;;;;;;;20.63;70.67;95970.84;5091386;28;20176;-75
2022/08/05 03:45:21;;;;;;;8.32;4.95;;;;;;;20.68;70.45;95964.94;5090122;28;20040;-76
2022/08/05 03:47:48;;;;;;;8.73;5.80;;;;;;;20.50;70.80;95971.19;5091160;28;20055;-76
2022/08/05 03:50:14;;;;;;;6.55;5.20;;;;;;;20.53;70.07;95969.63;5091110;28;20060;-76
2022/08/05 03:52:48;;;;;;;8.32;5.25;;;;;;;20.61;70.69;95967.66;5091105;28;20044;-76
2022/08/05 03:55:21;;;;;;;7.88;4.97;;;;;;;20.73;70.75;95975.59;5083902;28;20047;-76
2022/08/05 03:57:51;;;;;;;8.27;5.55;;;;;;;20.73;70.51;95970.06;5091115;28;20040;-76
2022/08/05 04:00:24;;;;;;;6.03;5.22;;;;;;;20.75;69.63;95967.69;5090537;28;20044;-75
2022/08/05 04:02:54;;;;;;;7.22;5.15;;;;;;;20.67;69.62;95961.34;5091009;28;20132;-76
2022/08/05 04:05:21;;;;;;;8.20;6.10;;;;;;;20.42;70.70;95966.81;5090426;28;20048;-75
2022/08/05 04:07:48;;;;;;;7.53;6.22;;;;;;;20.44;70.46;95964.44;5090780;28;20051;-77
2022/08/05 04:10:17;;;;;;;7.47;5.15;;;;;;;20.53;70.01;95962.13;5090560;28;20052;-76
2022/08/05 04:12:45;;;;;;;9.20;5.65;;;;;;;20.57;69.54;95962.94;5090761;28;20495;-76
2022/08/05 04:15:12;;;;;;;5.75;4.65;;;;;;;20.70;69.82;95965.31;5090354;28;20407;-75
2022/08/05 04:17:40;;;;;;;7.13;5.03;;;;;;;20.74;69.65;95957.81;5090783;28;20617;-76
2022/08/05 04:20:07;;;;;;;9.90;5.93;;;;;;;20.69;69.01;95952.66;5092858;28;20048;-74
2022/08/05 04:22:34;;;;;;;9.52;5.82;;;;;;;20.57;69.13;95962.94;5095582;28;20791;-74
2022/08/05 04:25:00;;;;;;;9.85;5.88;;;;;;;20.48;69.85;95962.50;5094880;28;20431;-75
2022/08/05 04:27:27;;;;;;;8.65;6.20;;;;;;;20.55;69.62;95965.28;5092553;28;20086;-75
2022/08/05 04:29:53;;;;;;;7.20;5.65;;;;;;;20.59;69.77;95966.09;5092812;28;20503;-75
2022/08/05 04:32:20;;;;;;;6.47;5.32;;;;;;;20.74;70.15;95972.44;5091076;28;20403;-75
2022/08/05 04:34:48;;;;;;;8.18;5.25;;;;;;;20.83;70.11;95974.84;5091307;28;20048;-76
2022/08/05 04:37:14;;;;;;;7.38;5.18;;;;;;;20.92;70.25;95975.22;5090881;28;20055;-76
2022/08/05 04:39:40;;;;;;;7.65;5.38;;;;;;;20.91;69.04;95976.41;5092222;28;20036;-76
2022/08/05 04:42:08;;;;;;;7.43;5.10;;;;;;;20.91;69.64;95986.69;5091651;28;20051;-76
2022/08/05 04:44:34;;;;;;;7.05;5.07;;;;;;;20.90;69.44;95985.91;5093042;28;20052;-76
2022/08/05 04:47:01;;;;;;;6.45;5.53;;;;;;;20.95;69.74;95993.81;5092345;28;20055;-77
2022/08/05 04:49:27;;;;;;;6.47;5.20;;;;;;;20.98;68.39;95989.44;5092138;28;20498;-78
2022/08/05 04:51:55;;;;;;;8.80;5.60;;;;;;;21.01;68.96;95992.22;5091101;28;20506;-76
2022/08/05 04:54:25;;;;;;;7.20;6.05;;;;;;;21.04;68.39;95990.66;5084872;28;20058;-75
2022/08/05 04:56:52;;;;;;;9.27;5.82;;;;;;;21.10;67.87;95989.88;5087527;28;20507;-75
2022/08/05 04:59:19;;;;;;;10.50;6.13;;;;;;;21.17;68.20;96011.22;5086557;28;20052;-75
2022/08/05 05:01:45;;;;;;;9.07;5.82;;;;;;;21.12;68.11;96031.00;5087032;28;20059;-75
2022/08/05 05:04:12;;;;;;;10.82;6.85;;;;;;;21.11;67.99;96035.75;5085170;28;20056;-75
2022/08/05 05:06:38;;;;;;;6.85;5.80;;;;;;;21.13;68.06;96040.09;5087249;28;20044;-75
2022/08/05 05:09:06;;;;;;;9.45;5.95;;;;;;;21.17;68.00;96038.13;5087625;28;20047;-78
2022/08/05 05:11:33;;;;;;;8.90;5.90;;;;;;;21.23;67.95;96044.84;5087805;28;20059;-78
2022/08/05 05:13:59;;;;;;;8.40;6.13;;;;;;;21.21;68.65;96033.38;5087509;28;20048;-77
2022/08/05 05:16:26;;;;;;;7.07;5.72;;;;;;;21.29;69.85;96034.94;5087528;28;20058;-79
2022/08/05 05:18:52;;;;;;;12.68;6.75;;;;;;;21.38;69.11;96032.63;5087746;28;20055;-78
2022/08/05 05:21:19;;;;;;;7.20;5.10;;;;;;;21.45;69.12;96037.34;5088506;28;20048;-78
2022/08/05 05:23:45;;;;;;;7.15;5.30;;;;;;;21.52;67.79;96038.16;5090998;28;20056;-77
2022/08/05 05:26:13;;;;;;;9.00;5.53;;;;;;;21.57;67.70;96029.44;5090199;28;20044;-78
2022/08/05 05:28:39;;;;;;;7.95;4.90;;;;;;;21.70;67.76;96031.78;5090652;28;20487;-78
2022/08/05 05:31:06;;;;;;;11.02;5.50;;;;;;;21.83;68.32;96027.44;5090074;28;20048;-77
2022/08/05 05:33:32;;;;;;;7.95;5.10;;;;;;;21.89;67.74;96034.16;5090881;28;20070;-80
2022/08/05 05:35:59;;;;;;;8.20;5.28;;;;;;;21.94;66.76;96033.75;5089959;28;20067;-78
2022/08/05 05:38:25;;;;;;;6.78;4.78;;;;;;;22.10;66.74;96038.84;5090050;28;20040;-78
2022/08/05 05:40:54;;;;;;;7.32;4.88;;;;;;;22.16;67.36;96030.94;5090328;28;20543;-77
2022/08/05 05:43:22;;;;;;;10.93;5.00;;;;;;;22.26;65.31;96030.91;5089893;28;20040;-78
2022/08/05 05:45:49;;;;;;;7.28;5.13;;;;;;;22.46;65.48;96039.53;5090325;28;20052;-78
2022/08/05 05:48:15;;;;;;;9.25;4.60;;;;;;;22.55;64.36;96039.09;5088677;28;20063;-78
2022/08/05 05:50:43;;;;;;;8.98;4.80;;;;;;;22.66;63.50;96048.97;5090370;28;20051;-77
2022/08/05 05:53:11;;;;;;;10.38;5.10;;;;;;;22.72;63.09;96048.53;5109771;28;20044;-82
2022/08/05 05:55:38;;;;;;;7.22;4.45;;;;;;;22.89;62.58;96044.91;5110736;28;20048;-83
2022/08/05 05:58:05;;;;;;;9.50;4.40;;;;;;;23.07;61.76;96042.78;5111663;28;20040;-82
2022/08/05 06:00:33;;;;;;;5.72;4.20;;;;;;;23.13;62.45;96037.63;5113428;28;20048;-82
2022/08/05 06:03:02;;;;;;;5.97;4.10;;;;;;;23.14;61.34;96034.41;5113521;28;20040;-83
2022/08/05 06:05:38;;;;;;;8.30;4.07;;;;;;;23.34;60.87;96034.69;5113232;28;20044;-83
2022/08/05 06:08:05;;;;;;;7.63;3.80;;;;;;;23.50;60.46;96048.03;5113494;28;20107;-79
2022/08/05 06:10:32;;;;;;;5.13;3.80;;;;;;;23.63;60.17;96040.78;5107542;28;20052;-83
2022/08/05 06:12:59;;;;;;;5.82;3.67;;;;;;;23.75;60.19;96035.91;5113527;28;20044;-84
2022/08/05 06:15:25;;;;;;;9.27;4.00;;;;;;;23.87;59.73;96033.44;5111862;28;20070;-81
2022/08/05 06:17:53;;;;;;;6.43;3.70;;;;;;;23.98;58.79;96038.88;5116251;28;20066;-81
2022/08/05 06:20:20;;;;;;;4.47;3.80;;;;;;;24.08;58.81;96034.41;5117042;28;20107;-82
2022/08/05 06:22:47;;;;;;;5.38;3.38;;;;;;;24.12;58.54;96041.53;5116465;27;20028;-88
2022/08/05 06:25:13;;;;;;;5.88;3.53;;;;;;;24.23;58.01;96043.41;5117272;28;20036;-83
2022/08/05 06:27:40;;;;;;;5.05;3.72;;;;;;;24.33;58.03;96045.28;5120584;27;20084;-81
2022/08/05 06:30:09;;;;;;;5.43;3.83;;;;;;;24.40;57.07;96050.78;5120741;27;20028;-74
2022/08/05 06:32:35;;;;;;;7.75;3.67;;;;;;;24.59;58.44;96055.72;5120577;27;20040;-86
2022/08/05 06:35:04;;;;;;;6.95;3.45;;;;;;;24.64;56.42;96049.69;5120274;27;20050;-77
2022/08/05 06:37:38;;;;;;;5.15;3.28;;;;;;;24.83;56.31;96050.22;5117461;27;20044;-85
2022/08/05 06:40:11;;;;;;;7.05;3.83;;;;;;;24.95;55.67;96044.06;5102886;28;20034;-80
2022/08/05 06:42:38;;;;;;;4.10;3.63;;;;;;;24.92;56.82;96044.94;5104674;28;20043;-82
2022/08/05 06:45:06;;;;;;;6.43;3.70;;;;;;;24.93;56.13;96054.88;5123952;28;20032;-81
2022/08/05 06:47:33;;;;;;;7.40;3.30;;;;;;;25.11;55.50;96055.44;5091917;28;20564;-81
2022/08/05 06:49:59;;;;;;;5.80;3.03;;;;;;;25.18;55.15;96063.69;5112594;27;20032;-82
2022/08/05 06:52:27;;;;;;;7.45;3.47;;;;;;;25.15;54.88;96055.38;5113800;28;20040;-84
2022/08/05 06:54:54;;;;;;;6.20;2.90;;;;;;;25.30;53.06;96050.38;5112166;28;20621;-85
2022/08/05 06:57:20;;;;;;;6.95;3.67;;;;;;;25.35;52.91;96052.69;5115134;28;20055;-85
2022/08/05 06:59:47;;;;;;;6.88;2.95;;;;;;;25.34;53.37;96067.84;5114782;27;20051;-81
2022/08/05 07:02:13;;;;;;;7.32;3.85;;;;;;;25.43;52.26;96062.53;5116537;27;20039;-81
2022/08/05 07:04:40;;;;;;;5.28;2.72;;;;;;;25.51;52.42;96061.19;5117168;27;20038;-84
2022/08/05 07:07:07;;;;;;;7.47;3.70;;;;;;;25.59;52.35;96064.66;5118309;27;20109;-81
2022/08/05 07:09:35;;;;;;;8.38;3.20;;;;;;;25.68;53.08;96060.09;5118696;27;20028;-87
2022/08/05 07:12:02;;;;;;;4.25;3.17;;;;;;;25.65;52.69;96065.75;5115500;28;20035;-77
2022/08/05 07:19:55;;;;;;;5.97;3.30;;;;;;;25.88;49.59;96073.34;5083721;22;20052;-83
2022/08/05 07:22:22;;;;;;;5.88;3.05;;;;;;;25.98;50.76;96073.16;5073915;28;20056;-82
2022/08/05 07:24:50;;;;;;;9.60;3.00;;;;;;;26.01;50.00;96080.69;5070585;28;20057;-84
2022/08/05 07:27:21;;;;;;;8.65;4.18;;;;;;;26.04;50.05;96081.81;5084766;22;20541;-94
2022/08/05 07:29:49;;;;;;;10.07;3.63;;;;;;;26.10;50.70;96082.94;5038542;28;20042;-94
2022/08/05 07:32:17;;;;;;;5.43;3.00;;;;;;;26.18;51.29;96081.56;5041274;28;20077;-92
2022/08/05 07:34:44;;;;;;;5.65;3.22;;;;;;;26.47;49.81;96084.66;5042172;28;20073;-96
2022/08/05 07:37:11;;;;;;;5.30;3.65;;;;;;;26.67;48.68;96087.44;5033954;28;20520;-96
2022/08/05 07:39:37;;;;;;;6.85;3.58;;;;;;;26.84;49.27;96093.09;5035000;28;20128;-95
2022/08/05 07:42:06;;;;;;;7.70;3.50;;;;;;;27.04;48.26;96096.63;5033814;28;20053;-96
2022/08/05 07:44:33;;;;;;;5.78;3.55;;;;;;;27.11;49.80;96096.53;5038122;28;20051;-96
2022/08/05 07:46:59;;;;;;;6.20;3.30;;;;;;;27.09;47.24;96093.38;5023609;28;20470;-96
2022/08/05 07:49:26;;;;;;;7.22;3.30;;;;;;;27.10;48.83;96094.19;5033637;28;20042;-96
2022/08/05 07:51:52;;;;;;;11.57;3.60;;;;;;;27.10;48.60;96099.75;5034572;28;20049;-96
2022/08/05 07:54:20;;;;;;;5.90;3.58;;;;;;;27.15;46.97;96108.44;5033713;28;20049;-96
2022/08/05 07:56:47;;;;;;;7.10;3.60;;;;;;;27.36;49.47;96106.38;5034331;28;20042;-93
2022/08/05 07:59:15;;;;;;;9.00;3.58;;;;;;;27.73;48.16;96117.09;5033545;28;20048;-96
2022/08/05 08:01:42;;;;;;;9.27;3.50;;;;;;;28.25;46.45;96121.81;5034648;28;20049;-95
2022/08/05 08:04:09;;;;;;;5.38;3.20;;;;;;;28.12;44.89;96117.34;5033929;28;20411;-96
2022/08/05 08:06:35;;;;;;;7.80;4.03;;;;;;;27.70;46.03;96128.34;5035074;28;20080;-96
2022/08/05 08:09:02;;;;;;;4.65;3.20;;;;;;;27.49;45.96;96138.00;5033967;28;20053;-92
2022/08/05 08:11:29;;;;;;;6.05;3.70;;;;;;;26.99;47.61;96145.47;5033862;28;20055;-95
2022/08/05 08:20:13;;;;;;;7.43;3.75;;;;;;;26.95;47.67;96152.34;5128761;22;20048;-86
2022/08/05 08:22:40;;;;;;;7.45;3.75;;;;;;;27.45;49.43;96156.88;5063566;22;20089;-81
2022/08/05 08:25:09;;;;;;;7.95;4.28;;;;;;;27.70;46.91;96156.31;5056208;28;20060;-79
2022/08/05 08:27:35;;;;;;;9.10;3.80;;;;;;;27.95;45.36;96158.56;5055526;28;20066;-81
2022/08/05 08:30:02;;;;;;;6.57;3.63;;;;;;;28.25;47.36;96155.41;5092660;22;20052;-77
2022/08/05 08:32:29;;;;;;;6.90;3.60;;;;;;;28.48;44.66;96159.25;5059547;28;20036;-74
2022/08/05 08:34:56;;;;;;;6.25;3.75;;;;;;;28.61;44.65;96154.50;5077502;28;20029;-81
2022/08/05 08:39:55;;;;;;;10.07;4.43;;;;;;;28.56;44.06;96163.44;5080012;28;20052;-96
2022/08/05 08:42:24;;;;;;;9.57;4.25;;;;;;;28.30;46.18;96163.28;5085725;28;21569;-94
2022/08/05 08:44:55;;;;;;;6.43;4.10;;;;;;;28.66;45.60;96162.38;5085042;28;20040;-95
2022/08/05 08:47:24;;;;;;;7.38;3.92;;;;;;;28.78;43.86;96169.25;5081696;28;20479;-96
2022/08/05 08:49:53;;;;;;;7.30;4.10;;;;;;;28.60;43.82;96169.72;5080249;28;20078;-96
2022/08/05 08:52:23;;;;;;;7.93;4.45;;;;;;;28.65;44.65;96182.41;5078175;28;20111;-95
2022/08/05 08:54:52;;;;;;;10.73;4.28;;;;;;;28.79;43.64;96177.19;5091258;28;20712;-93
2022/08/05 08:57:22;;;;;;;11.43;4.63;;;;;;;28.97;44.60;96181.53;5119075;28;20051;-95
2022/08/05 08:59:49;;;;;;;7.97;3.88;;;;;;;29.00;42.74;96186.28;5119854;28;20057;-94
2022/08/05 09:02:19;;;;;;;7.38;4.30;;;;;;;29.10;44.10;96194.38;5119678;28;20409;-96
2022/08/05 09:04:47;;;;;;;7.07;4.38;;;;;;;28.94;43.61;96182.44;5119235;28;20050;-95
2022/08/05 09:07:14;;;;;;;5.90;4.10;;;;;;;28.95;42.93;96189.63;5117862;28;20093;-93
2022/08/05 09:09:41;;;;;;;5.50;4.35;;;;;;;29.09;41.32;96194.84;5120226;28;20109;-94
2022/08/05 09:12:09;;;;;;;8.40;4.40;;;;;;;29.15;42.21;96198.66;5119567;28;20047;-94
2022/08/05 09:14:39;;;;;;;7.93;4.03;;;;;;;28.93;41.72;96200.47;5121067;28;20414;-93
2022/08/05 09:17:08;;;;;;;8.15;4.13;;;;;;;29.07;41.83;96202.88;5120772;28;20067;-94
2022/08/05 09:19:36;;;;;;;4.63;3.75;;;;;;;29.21;42.33;96205.28;5122662;28;20119;-96
2022/08/05 09:22:02;;;;;;;6.53;3.38;;;;;;;29.49;40.14;96191.66;5120753;28;20053;-91
2022/08/05 09:24:29;;;;;;;12.23;3.70;;;;;;;29.29;41.65;96203.88;5122893;28;20559;-94
2022/08/05 09:26:57;;;;;;;10.02;4.03;;;;;;;29.07;41.75;96206.47;5119945;28;20600;-94
2022/08/05 09:29:44;;;;;;;7.53;3.40;;;;;;;29.19;39.76;96216.16;5114628;28;20077;-95
2022/08/05 09:32:12;;;;;;;8.00;3.45;;;;;;;29.22;40.21;96214.47;5094768;28;20043;-93
2022/08/05 09:34:54;;;;;;;7.65;3.63;;;;;;;28.97;40.17;96209.56;5112288;28;20048;-93
2022/08/05 09:37:22;;;;;;;8.77;3.75;;;;;;;29.27;42.70;96205.53;5112011;28;20115;-94
2022/08/05 09:39:48;;;;;;;6.18;3.70;;;;;;;29.35;43.29;96218.91;5113842;28;20135;-96
2022/08/05 09:42:17;;;;;;;8.98;3.78;;;;;;;29.13;41.76;96220.75;5115807;28;20043;-95
2022/08/05 09:44:46;;;;;;;13.43;4.45;;;;;;;29.25;42.09;96224.81;5113005;28;20094;-94
2022/08/05 09:47:16;;;;;;;6.05;3.40;;;;;;;29.20;42.44;96226.16;5113196;28;20107;-96
2022/08/05 09:49:45;;;;;;;4.95;3.25;;;;;;;29.49;41.07;96233.72;5114855;28;20069;-96
2022/08/05 09:52:23;;;;;;;5.65;3.30;;;;;;;29.67;39.53;96222.03;5116243;28;20051;-96
2022/08/05 09:54:59;;;;;;;9.82;3.40;;;;;;;29.78;42.21;96226.06;5115922;28;20101;-95
2022/08/05 09:57:31;;;;;;;7.78;3.42;;;;;;;29.62;40.62;96217.75;5116106;28;20471;-96
2022/08/05 10:00:00;;;;;;;8.18;3.78;;;;;;;29.69;40.33;96220.34;5117690;28;20501;-94
2022/08/05 10:02:35;;;;;;;7.43;3.42;;;;;;;29.76;39.81;96214.53;5117163;28;20375;-94
2022/08/05 10:05:08;;;;;;;5.20;3.13;;;;;;;29.87;39.75;96214.97;5115253;28;20519;-94
2022/08/05 10:07:50;;;;;;;5.72;3.50;;;;;;;29.82;41.69;96221.16;5117708;28;20048;-94
2022/08/05 10:10:19;;;;;;;12.40;3.47;;;;;;;29.99;40.10;96210.59;5116145;28;20047;-94
2022/08/05 10:12:49;;;;;;;7.20;3.60;;;;;;;29.99;39.60;96209.81;5116068;28;20048;-94
2022/08/05 10:15:20;;;;;;;6.15;3.33;;;;;;;30.20;39.09;96220.38;5114642;28;20063;-96
2022/08/05 10:18:04;;;;;;;5.72;3.42;;;;;;;30.32;39.88;96216.75;5116713;28;20075;-95
2022/08/05 10:20:32;;;;;;;6.35;3.53;;;;;;;30.28;39.93;96218.09;5116258;28;20043;-96
2022/08/05 10:22:59;;;;;;;5.68;3.45;;;;;;;30.15;38.34;96215.31;5117040;28;20418;-95
2022/08/05 10:25:27;;;;;;;5.35;3.38;;;;;;;30.49;39.58;96219.41;5098050;28;20039;-95
2022/08/05 10:27:54;;;;;;;9.30;3.15;;;;;;;30.66;38.44;96223.66;5118079;28;20450;-96
2022/08/05 10:30:38;;;;;;;7.68;3.42;;;;;;;30.59;37.52;96229.50;5115770;28;20054;-95
2022/08/05 10:33:07;;;;;;;7.68;2.80;;;;;;;30.80;38.30;96234.47;5116337;28;20043;-95
2022/08/05 10:35:35;;;;;;;5.97;2.90;;;;;;;30.76;36.54;96245.03;5117500;28;20036;-95
2022/08/05 10:38:03;;;;;;;9.05;2.60;;;;;;;30.58;36.85;96239.97;5119236;28;20125;-92
2022/08/05 10:40:35;;;;;;;11.73;2.88;;;;;;;30.35;38.95;96227.09;5119737;28;20405;-95
2022/08/05 10:43:11;;;;;;;8.25;2.97;;;;;;;30.62;37.59;96229.41;5130751;28;20048;-88
2022/08/05 10:45:40;;;;;;;7.60;2.35;;;;;;;30.30;36.93;96238.13;5129584;28;20056;-94
2022/08/05 10:48:29;;;;;;;11.93;3.28;;;;;;;30.38;38.12;96245.06;5120844;28;20176;-95
2022/08/05 10:51:05;;;;;;;6.53;2.80;;;;;;;30.27;38.16;96234.19;5117947;28;20043;-94
2022/08/05 10:53:38;;;;;;;8.05;2.50;;;;;;;30.16;37.84;96233.75;5116497;28;20035;-96
2022/08/05 10:56:07;;;;;;;5.53;2.63;;;;;;;30.39;37.42;96230.59;5114412;28;20043;-91
2022/08/05 10:58:35;;;;;;;8.15;2.50;;;;;;;30.39;37.85;96232.59;5115570;28;20051;-94
2022/08/05 11:01:07;;;;;;;5.78;2.53;;;;;;;30.39;38.05;96233.38;5115021;28;20051;-96
2022/08/05 11:03:34;;;;;;;4.97;2.85;;;;;;;30.19;36.44;96241.28;5115344;28;20123;-94
2022/08/05 11:06:10;;;;;;;6.00;2.50;;;;;;;30.28;37.27;96241.38;5098768;28;20048;-96
2022/08/05 11:08:36;;;;;;;6.53;2.42;;;;;;;30.19;37.82;96238.47;5115471;28;20046;-94
2022/08/05 11:11:34;;;;;;;4.00;2.45;;;;;;;30.55;39.45;96249.31;5097856;28;20054;-95
2022/08/05 11:14:02;;;;;;;6.30;2.65;;;;;;;30.75;37.13;96242.66;5115757;28;20055;-94
2022/08/05 11:16:31;;;;;;;5.28;2.58;;;;;;;30.63;36.70;96241.44;5115471;28;20058;-94
2022/08/05 11:19:27;;;;;;;5.97;2.30;;;;;;;30.54;36.74;96238.50;5115445;28;20123;-95
2022/08/05 11:21:55;;;;;;;6.50;2.42;;;;;;;30.67;37.58;96236.47;5114483;28;20039;-94
2022/08/05 11:24:22;;;;;;;4.30;2.60;;;;;;;30.89;37.95;96230.94;5115000;28;20071;-94
2022/08/05 11:26:50;;;;;;;6.93;2.63;;;;;;;30.58;36.35;96228.72;5116674;28;20067;-95
2022/08/05 11:29:39;;;;;;;8.18;2.40;;;;;;;30.48;35.67;96229.09;5116333;28;20130;-93
2022/08/05 11:32:27;;;;;;;4.68;2.17;;;;;;;30.70;36.97;96234.81;5117169;28;20047;-95
2022/08/05 11:34:54;;;;;;;3.42;2.35;;;;;;;30.78;37.05;96231.31;5116554;28;20048;-94
2022/08/05 11:37:59;;;;;;;4.85;2.30;;;;;;;30.61;36.65;96232.69;5114512;28;20043;-95
2022/08/05 11:41:01;;;;;;;9.82;2.50;;;;;;;30.58;36.45;96227.94;5074200;28;20047;-95
2022/08/05 11:43:29;;;;;;;7.78;2.22;;;;;;;30.78;36.81;96233.31;5073825;28;20110;-94
2022/08/05 11:45:56;;;;;;;4.15;2.47;;;;;;;30.89;37.37;96228.91;5079316;28;20037;-93
2022/08/05 11:48:25;;;;;;;3.85;2.33;;;;;;;30.87;37.38;96228.56;5079674;28;20123;-95
2022/08/05 11:50:52;;;;;;;6.70;2.47;;;;;;;31.08;35.74;96217.81;5076293;28;20127;-94
2022/08/05 11:53:19;;;;;;;6.75;2.40;;;;;;;31.09;35.93;96227.81;5073369;28;20135;-90
2022/08/05 11:55:58;;;;;;;6.03;2.35;;;;;;;31.22;35.10;96225.75;5073764;28;20054;-94